< < Back
Terminal Aerodrome Forecast


Current Version              Previous Versions:   1  2  3  4  5  6  7  8  9  

Terminal Aerodrome Forecast

806
FTUS42 KCAE 271400 AAB
TAFAGS
TAF AMD
KAGS 271417Z 2714/2812 VRB03KT P6SM BKN040
     FM271500 02008KT P6SM SCT040=



Latest METAR

075
SAUS70 KWBC 272100 RRA
MTRAGS
METAR KAGS 272053Z VRB03KT 10SM CLR 13/00 A3032 RMK AO2 SLP268 T01330000
55016


USA.gov is the U.S. government's official web portal to all federal, state and local government web resources and services.